Time;durP1;ratioP1;P1;durP2;ratioP2;P2;SDS_P1;SDS_P2;PMS_P1;PMS_P2;Temp;Humidity;BMP_temperature;BMP_pressure;BME280_temperature;BME280_humidity;BME280_pressure;Samples;Min_cycle;Max_cycle;Signal;HPM_P1;HPM_P2
2023/10/12 00:02:41;;;;;;;14.83;5.47;;;18.80;62.20;;;;;;6284313;28;20383;-83
2023/10/12 00:05:45;;;;;;;10.03;5.80;;;18.90;61.80;;;;;;6278619;28;20237;-83
2023/10/12 00:08:49;;;;;;;13.57;5.73;;;18.90;61.80;;;;;;6286144;28;20232;-83
2023/10/12 00:11:57;;;;;;;9.93;5.77;;;18.90;61.60;;;;;;6270026;28;20241;-83
2023/10/12 00:15:05;;;;;;;12.90;6.40;;;19.00;60.90;;;;;;6279063;28;20229;-83
2023/10/12 00:18:09;;;;;;;9.47;5.50;;;19.20;60.40;;;;;;6286094;28;20717;-81
2023/10/12 00:21:25;;;;;;;7.73;4.87;;;19.20;60.10;;;;;;6274882;28;20287;-81
2023/10/12 00:24:30;;;;;;;8.00;5.40;;;19.40;59.50;;;;;;6285305;28;20241;-83
2023/10/12 00:27:37;;;;;;;14.63;5.83;;;19.40;59.20;;;;;;6279153;28;20807;-82
2023/10/12 00:30:48;;;;;;;9.17;5.60;;;19.40;59.00;;;;;;6278349;28;20279;-83
2023/10/12 00:33:51;;;;;;;12.90;5.00;;;19.50;58.40;;;;;;6269183;28;20241;-83
2023/10/12 00:36:57;;;;;;;9.53;5.03;;;19.60;58.60;;;;;;6279023;28;20233;-83
2023/10/12 00:40:22;;;;;;;12.90;5.60;;;19.60;58.00;;;;;;6286204;28;20253;-84
2023/10/12 00:43:31;;;;;;;10.00;5.07;;;19.70;58.00;;;;;;6279198;28;20325;-83
2023/10/12 00:46:48;;;;;;;10.80;5.53;;;19.70;57.80;;;;;;6271074;28;20619;-83
2023/10/12 00:49:55;;;;;;;8.93;5.87;;;19.70;57.90;;;;;;6278453;28;20752;-83
2023/10/12 00:53:14;;;;;;;9.87;5.30;;;19.70;57.70;;;;;;6282227;28;20708;-83
2023/10/12 00:56:18;;;;;;;12.87;5.80;;;19.70;57.60;;;;;;6283006;28;20446;-82
2023/10/12 00:59:22;;;;;;;11.37;5.60;;;19.70;57.30;;;;;;6282815;28;20241;-84
2023/10/12 01:02:32;;;;;;;7.07;5.00;;;19.70;57.70;;;;;;6276801;28;20233;-82
2023/10/12 01:05:36;;;;;;;12.97;5.40;;;19.70;57.60;;;;;;6289226;28;20244;-80
2023/10/12 01:08:43;;;;;;;11.03;5.73;;;19.70;57.70;;;;;;6285094;28;20244;-83
2023/10/12 01:11:53;;;;;;;7.90;5.43;;;19.60;58.30;;;;;;6268997;28;20234;-82
2023/10/12 01:14:56;;;;;;;7.70;6.10;;;19.50;58.10;;;;;;6289545;28;20234;-82
2023/10/12 01:18:01;;;;;;;9.50;5.33;;;19.50;58.60;;;;;;6281551;28;20256;-82
2023/10/12 01:21:11;;;;;;;10.57;5.57;;;19.50;58.40;;;;;;6280703;28;20240;-80
2023/10/12 01:24:16;;;;;;;9.83;5.47;;;19.50;58.20;;;;;;6291291;28;20233;-83
2023/10/12 01:27:21;;;;;;;12.07;5.53;;;19.50;58.20;;;;;;6285117;28;20229;-83
2023/10/12 01:30:27;;;;;;;13.30;6.30;;;19.40;58.40;;;;;;6285219;28;20290;-83
2023/10/12 01:33:30;;;;;;;9.33;5.97;;;19.40;58.60;;;;;;6289510;28;20717;-83
2023/10/12 01:36:34;;;;;;;7.60;5.70;;;19.50;58.40;;;;;;6289530;28;20265;-80
2023/10/12 01:39:41;;;;;;;8.47;5.57;;;19.50;58.60;;;;;;6286057;28;20777;-82
2023/10/12 01:42:50;;;;;;;6.67;5.43;;;19.50;58.70;;;;;;6263024;28;20222;-82
2023/10/12 01:46:00;;;;;;;13.57;5.67;;;19.50;58.90;;;;;;6303814;28;20725;-82
2023/10/12 01:49:06;;;;;;;8.57;6.10;;;19.40;59.00;;;;;;6289978;28;20371;-81
2023/10/12 01:52:09;;;;;;;10.57;5.63;;;19.40;59.10;;;;;;6280766;28;20693;-80
2023/10/12 01:55:18;;;;;;;10.63;5.43;;;19.30;59.30;;;;;;6289875;28;20312;-82
2023/10/12 01:58:27;;;;;;;7.27;5.67;;;19.30;59.50;;;;;;6289107;28;20241;-84
2023/10/12 02:01:33;;;;;;;9.90;6.10;;;19.30;59.70;;;;;;6275465;28;20238;-83
2023/10/12 02:04:40;;;;;;;12.00;5.67;;;19.30;59.70;;;;;;6280024;28;20626;-83
2023/10/12 02:07:44;;;;;;;7.50;5.53;;;19.20;59.80;;;;;;6284367;28;20283;-81
2023/10/12 02:10:58;;;;;;;12.67;5.80;;;19.20;59.80;;;;;;6281992;28;20240;-82
2023/10/12 02:14:02;;;;;;;9.07;5.20;;;19.20;60.00;;;;;;6279177;28;20233;-82
2023/10/12 02:17:06;;;;;;;7.53;5.67;;;19.10;60.50;;;;;;6276803;28;20267;-81
2023/10/12 02:20:12;;;;;;;9.07;5.67;;;19.00;60.60;;;;;;6263650;28;20225;-82
2023/10/12 02:23:16;;;;;;;11.20;5.37;;;19.00;60.50;;;;;;6280237;28;20249;-83
2023/10/12 02:26:32;;;;;;;12.17;5.67;;;19.00;60.70;;;;;;6272827;28;20430;-81
2023/10/12 02:29:36;;;;;;;13.40;5.07;;;19.00;60.90;;;;;;6285140;28;20230;-82
2023/10/12 02:32:51;;;;;;;10.50;5.33;;;18.80;61.10;;;;;;6285215;28;20242;-82
2023/10/12 02:35:55;;;;;;;9.73;6.23;;;18.80;61.30;;;;;;6279211;28;20249;-82
2023/10/12 02:39:10;;;;;;;9.53;5.40;;;18.80;61.50;;;;;;6287945;28;20256;-83
2023/10/12 02:42:18;;;;;;;11.37;5.57;;;18.80;61.60;;;;;;6274758;28;20225;-82
2023/10/12 02:45:27;;;;;;;8.10;6.30;;;18.70;61.60;;;;;;6287956;28;20244;-82
2023/10/12 02:48:30;;;;;;;13.53;6.20;;;18.80;61.60;;;;;;6262448;28;20243;-82
2023/10/12 02:51:39;;;;;;;10.03;5.77;;;18.80;61.40;;;;;;6280012;28;20236;-82
2023/10/12 02:54:49;;;;;;;8.67;5.47;;;18.80;61.80;;;;;;6288510;28;20275;-83
2023/10/12 02:57:59;;;;;;;8.23;5.97;;;18.70;61.70;;;;;;6281827;28;20230;-81
2023/10/12 03:01:13;;;;;;;11.30;6.03;;;18.60;62.60;;;;;;6278887;28;20294;-80
2023/10/12 03:04:17;;;;;;;10.10;6.33;;;18.60;62.80;;;;;;6286687;28;20443;-81
2023/10/12 03:07:23;;;;;;;17.83;6.03;;;18.50;63.00;;;;;;6266895;28;20253;-81
2023/10/12 03:10:27;;;;;;;19.17;6.03;;;18.40;63.30;;;;;;6279508;28;20238;-84
2023/10/12 03:13:35;;;;;;;13.97;6.03;;;18.30;63.90;;;;;;6272476;28;20297;-82
2023/10/12 03:16:41;;;;;;;13.43;6.40;;;18.20;64.20;;;;;;6275967;28;20750;-83
2023/10/12 03:19:48;;;;;;;15.63;6.57;;;18.10;64.70;;;;;;6277034;28;20249;-82
2023/10/12 03:22:52;;;;;;;11.83;5.57;;;18.10;65.60;;;;;;6267910;28;20242;-83
2023/10/12 03:25:56;;;;;;;16.03;6.37;;;18.00;66.10;;;;;;6268946;28;20872;-82
2023/10/12 03:29:09;;;;;;;12.57;6.23;;;17.80;66.30;;;;;;6280450;28;20313;-83
2023/10/12 03:32:16;;;;;;;11.40;6.07;;;17.80;66.70;;;;;;6275107;28;20237;-85
2023/10/12 03:35:34;;;;;;;10.43;6.40;;;17.70;67.10;;;;;;6281808;28;20295;-82
2023/10/12 03:38:38;;;;;;;9.13;6.30;;;17.60;67.50;;;;;;6267589;28;20717;-82
2023/10/12 03:45:25;;;;;;;10.20;7.13;;;17.50;69.00;;;;;;6192334;28;20769;-81
2023/10/12 03:48:48;;;;;;;12.80;7.43;;;17.40;69.80;;;;;;6265590;28;20280;-83
2023/10/12 03:51:57;;;;;;;15.20;7.13;;;17.30;69.80;;;;;;6282747;28;20237;-82
2023/10/12 03:55:18;;;;;;;11.27;7.70;;;17.20;70.60;;;;;;6269284;28;20261;-83
2023/10/12 03:58:23;;;;;;;14.13;7.83;;;17.10;71.40;;;;;;6280410;28;20853;-81
2023/10/12 04:01:31;;;;;;;11.93;7.70;;;17.00;72.10;;;;;;6284163;28;20229;-84
2023/10/12 04:04:41;;;;;;;10.23;8.03;;;16.90;72.50;;;;;;6271751;28;20255;-83
2023/10/12 04:08:00;;;;;;;14.33;7.87;;;16.80;73.70;;;;;;6265775;28;20230;-81
2023/10/12 04:17:53;;;;;;;8.77;7.83;;;16.50;74.70;;;;;;6281636;28;20244;-81
2023/10/12 04:20:56;;;;;;;12.20;7.97;;;16.40;75.80;;;;;;6277382;28;20276;-82
2023/10/12 04:31:12;;;;;;;12.67;7.87;;;16.20;76.50;;;;;;6255883;28;20229;-85
2023/10/12 04:34:06;;;;;;;11.20;7.27;;;16.10;77.00;;;;;;6284345;28;20237;-82
2023/10/12 04:37:11;;;;;;;8.17;7.23;;;16.00;77.70;;;;;;6279986;28;20282;-83
2023/10/12 04:40:36;;;;;;;9.63;6.30;;;16.00;77.60;;;;;;6283369;28;20255;-81
2023/10/12 04:43:39;;;;;;;8.77;6.70;;;16.00;77.60;;;;;;6279038;28;20250;-83
2023/10/12 04:46:47;;;;;;;6.00;5.50;;;15.80;77.90;;;;;;6284462;28;20248;-83
2023/10/12 04:49:57;;;;;;;6.03;5.50;;;15.80;78.00;;;;;;6277933;28;20229;-82
2023/10/12 04:53:08;;;;;;;8.23;5.90;;;15.70;78.10;;;;;;6280654;28;20238;-83
2023/10/12 04:56:11;;;;;;;12.83;5.80;;;15.60;78.40;;;;;;6280929;28;20229;-84
2023/10/12 04:59:15;;;;;;;5.93;5.43;;;15.60;78.40;;;;;;6280801;28;20373;-84
2023/10/12 05:02:28;;;;;;;7.43;5.67;;;15.50;78.40;;;;;;6280993;28;20234;-82
2023/10/12 05:08:57;;;;;;;5.00;4.70;;;15.40;78.80;;;;;;6285752;28;20312;-82
2023/10/12 05:12:01;;;;;;;5.23;4.83;;;15.30;79.20;;;;;;6282908;28;20240;-82
2023/10/12 05:15:11;;;;;;;7.10;4.87;;;15.20;79.50;;;;;;6272690;28;20249;-82
2023/10/12 05:18:17;;;;;;;5.23;4.90;;;15.10;79.60;;;;;;6288926;28;20252;-82
2023/10/12 05:21:22;;;;;;;5.60;4.33;;;15.00;79.90;;;;;;6291857;28;20237;-82
2023/10/12 05:24:25;;;;;;;5.33;4.83;;;15.00;80.10;;;;;;6274022;28;20344;-83
2023/10/12 05:27:38;;;;;;;7.93;5.13;;;14.90;80.40;;;;;;6283285;28;20241;-77
2023/10/12 05:30:48;;;;;;;7.00;5.97;;;14.90;80.90;;;;;;6280483;28;20888;-78
2023/10/12 05:34:18;;;;;;;5.63;5.20;;;14.80;81.80;;;;;;6269458;28;20257;-79
2023/10/12 05:37:26;;;;;;;5.87;5.37;;;14.80;82.00;;;;;;6275328;28;20236;-77
2023/10/12 05:40:35;;;;;;;7.43;6.20;;;14.70;82.20;;;;;;6291774;28;20313;-77
2023/10/12 05:43:40;;;;;;;6.30;5.20;;;14.60;82.80;;;;;;6281987;28;20233;-77
2023/10/12 05:46:48;;;;;;;6.37;5.67;;;14.60;83.10;;;;;;6278008;28;20230;-74
2023/10/12 05:49:51;;;;;;;6.57;5.60;;;14.60;83.20;;;;;;6285151;28;20226;-78
2023/10/12 05:52:59;;;;;;;7.70;6.63;;;14.60;83.30;;;;;;6279950;28;20845;-81
2023/10/12 05:56:04;;;;;;;7.30;6.60;;;14.60;83.40;;;;;;6281918;28;20230;-83
2023/10/12 05:59:12;;;;;;;14.30;7.80;;;14.60;83.70;;;;;;6285357;28;20233;-82
2023/10/12 06:02:17;;;;;;;9.47;6.67;;;14.60;83.80;;;;;;6280532;28;20397;-83
2023/10/12 06:05:22;;;;;;;9.90;7.40;;;14.60;84.00;;;;;;6284794;28;20238;-84
2023/10/12 06:08:33;;;;;;;13.07;8.23;;;14.60;84.10;;;;;;6281711;28;20378;-82
2023/10/12 06:11:40;;;;;;;11.47;8.50;;;14.60;84.10;;;;;;6280177;28;20323;-83
2023/10/12 06:14:52;;;;;;;11.10;8.67;;;14.60;84.50;;;;;;6284969;28;20807;-83
2023/10/12 06:17:57;;;;;;;11.27;8.00;;;14.60;84.60;;;;;;6278143;28;20244;-82
2023/10/12 06:21:06;;;;;;;18.07;8.80;;;14.60;84.60;;;;;;6284085;28;20260;-81
2023/10/12 06:24:12;;;;;;;8.80;7.97;;;14.70;84.70;;;;;;6280613;28;20233;-82
2023/10/12 06:27:23;;;;;;;12.37;9.60;;;14.70;84.60;;;;;;6282750;28;20334;-82
2023/10/12 06:30:28;;;;;;;11.67;8.57;;;14.70;84.70;;;;;;6285162;28;20230;-84
2023/10/12 06:33:31;;;;;;;17.53;9.00;;;14.70;84.70;;;;;;6279055;28;20238;-83
2023/10/12 06:36:40;;;;;;;10.07;8.97;;;14.80;84.70;;;;;;6270748;28;20264;-83
2023/10/12 06:46:33;;;;;;;13.00;9.87;;;14.80;85.00;;;;;;6281256;28;20261;-83
2023/10/12 06:49:37;;;;;;;11.73;10.53;;;14.80;84.90;;;;;;6270012;28;20324;-82
2023/10/12 06:52:40;;;;;;;12.90;10.37;;;14.80;84.80;;;;;;6286362;28;20268;-81
2023/10/12 06:55:56;;;;;;;18.20;12.10;;;14.90;84.90;;;;;;6287135;28;20363;-82
2023/10/12 06:59:12;;;;;;;14.17;10.57;;;14.90;85.10;;;;;;6289883;28;20252;-83
2023/10/12 07:02:20;;;;;;;17.70;12.07;;;14.90;85.10;;;;;;6274003;28;20254;-82
2023/10/12 07:05:28;;;;;;;17.13;12.27;;;14.90;85.20;;;;;;6281266;28;20345;-82
2023/10/12 07:08:31;;;;;;;13.67;12.20;;;14.90;85.20;;;;;;6279774;28;20267;-80
2023/10/12 07:11:40;;;;;;;11.90;10.70;;;15.00;84.90;;;;;;6317856;28;20229;-80
2023/10/12 07:14:46;;;;;;;15.77;12.27;;;15.00;85.00;;;;;;6314020;28;20276;-80
2023/10/12 07:17:50;;;;;;;13.93;11.97;;;15.00;84.90;;;;;;6312364;28;20230;-79
2023/10/12 07:20:53;;;;;;;17.13;12.03;;;15.00;84.80;;;;;;6311865;28;20247;-77
2023/10/12 07:23:57;;;;;;;13.30;11.60;;;15.00;84.70;;;;;;6308723;28;20279;-79
2023/10/12 07:27:10;;;;;;;19.43;11.83;;;15.00;84.70;;;;;;6315773;28;20225;-79
2023/10/12 07:30:30;;;;;;;14.87;11.27;;;15.00;84.60;;;;;;6313267;28;20256;-80
2023/10/12 07:33:33;;;;;;;16.10;12.20;;;15.00;84.50;;;;;;6304706;28;20234;-76
2023/10/12 07:36:44;;;;;;;13.53;12.20;;;15.00;84.40;;;;;;6313531;28;20217;-78
2023/10/12 07:39:50;;;;;;;17.97;11.77;;;15.00;84.60;;;;;;6311362;28;20222;-79
2023/10/12 07:42:54;;;;;;;14.90;11.83;;;15.00;84.60;;;;;;6318258;28;20237;-79
2023/10/12 07:46:10;;;;;;;13.07;10.27;;;15.00;84.70;;;;;;6317452;28;20250;-82
2023/10/12 07:49:27;;;;;;;15.70;10.87;;;15.10;84.50;;;;;;6310068;28;20384;-81
2023/10/12 07:52:46;;;;;;;13.13;10.47;;;15.20;84.30;;;;;;6318004;28;20206;-83
2023/10/12 07:55:57;;;;;;;11.03;8.30;;;15.20;84.00;;;;;;6308279;28;20221;-81
2023/10/12 07:59:14;;;;;;;5.80;5.37;;;15.20;83.90;;;;;;6299589;28;20213;-82
2023/10/12 08:02:31;;;;;;;3.30;3.10;;;15.00;82.90;;;;;;6307302;28;20253;-78
2023/10/12 08:05:43;;;;;;;2.60;2.50;;;14.70;80.70;;;;;;6309211;28;20232;-78
2023/10/12 08:08:48;;;;;;;6.33;2.80;;;14.40;80.30;;;;;;6298471;28;20226;-78
2023/10/12 08:11:53;;;;;;;2.70;2.50;;;14.10;80.30;;;;;;6308267;28;20229;-81
2023/10/12 08:15:08;;;;;;;3.10;2.53;;;13.90;80.70;;;;;;6311766;28;20232;-82
2023/10/12 08:18:51;;;;;;;4.80;2.90;;;13.70;80.90;;;;;;6306009;28;20218;-79
2023/10/12 08:21:34;;;;;;;4.23;2.77;;;13.50;80.40;;;;;;6301656;28;20234;-76
2023/10/12 08:24:37;;;;;;;5.00;3.33;;;13.40;81.10;;;;;;6311493;28;20335;-81
2023/10/12 08:27:52;;;;;;;5.33;3.37;;;13.30;81.60;;;;;;6319456;28;20221;-80
2023/10/12 08:31:01;;;;;;;6.90;3.53;;;13.30;81.20;;;;;;6290074;28;20233;-83
2023/10/12 08:34:13;;;;;;;8.67;3.27;;;13.30;80.70;;;;;;6287412;28;20241;-83
2023/10/12 08:37:18;;;;;;;11.93;3.30;;;13.30;79.80;;;;;;6279439;28;20310;-81
2023/10/12 08:40:26;;;;;;;7.03;3.60;;;13.10;79.50;;;;;;6282496;28;20233;-83
2023/10/12 08:43:42;;;;;;;7.20;3.37;;;13.10;78.60;;;;;;6276296;28;20322;-85
2023/10/12 08:46:56;;;;;;;8.17;3.80;;;13.10;78.80;;;;;;6284080;28;20245;-84
2023/10/12 08:50:03;;;;;;;4.97;3.13;;;13.10;78.10;;;;;;6287330;28;20246;-82
2023/10/12 08:53:07;;;;;;;6.93;3.43;;;13.00;78.40;;;;;;6283994;28;20263;-82
2023/10/12 08:56:12;;;;;;;6.37;3.60;;;13.10;78.60;;;;;;6286269;28;20241;-83
2023/10/12 08:59:19;;;;;;;5.43;3.70;;;13.00;78.50;;;;;;6281210;28;20236;-83
2023/10/12 09:02:24;;;;;;;4.73;3.27;;;13.10;79.00;;;;;;6283726;28;20242;-80
2023/10/12 09:05:30;;;;;;;7.30;3.50;;;13.10;78.10;;;;;;6286467;28;20230;-80
2023/10/12 09:08:46;;;;;;;11.53;4.30;;;13.10;78.20;;;;;;6280773;28;20233;-80
2023/10/12 09:11:48;;;;;;;7.87;3.43;;;13.10;77.90;;;;;;6279130;28;20233;-82
2023/10/12 09:14:55;;;;;;;10.57;3.23;;;13.10;77.50;;;;;;6282439;28;20269;-82
2023/10/12 09:18:05;;;;;;;6.73;3.40;;;13.20;76.20;;;;;;6280932;28;20752;-81
2023/10/12 09:21:18;;;;;;;7.77;3.53;;;13.30;76.10;;;;;;6288997;28;20232;-81
2023/10/12 09:24:28;;;;;;;9.37;3.30;;;13.30;76.20;;;;;;6284792;28;20246;-81
2023/10/12 09:27:37;;;;;;;4.70;3.30;;;13.50;76.20;;;;;;6288973;28;20241;-81
2023/10/12 09:30:45;;;;;;;8.93;4.27;;;13.50;76.00;;;;;;6292824;28;20237;-81
2023/10/12 09:33:54;;;;;;;4.20;3.33;;;13.60;75.50;;;;;;6285545;28;20745;-83
2023/10/12 09:36:58;;;;;;;8.37;3.67;;;13.70;75.80;;;;;;6285775;28;20374;-81
2023/10/12 09:40:23;;;;;;;6.23;3.50;;;13.90;74.60;;;;;;6288565;28;20243;-81
2023/10/12 09:43:32;;;;;;;9.80;3.60;;;13.90;74.60;;;;;;6275991;28;20226;-84
2023/10/12 09:46:36;;;;;;;9.23;4.30;;;13.90;73.50;;;;;;6289147;28;20237;-80
2023/10/12 09:49:49;;;;;;;9.57;3.20;;;14.00;73.90;;;;;;6289290;28;20784;-82
2023/10/12 09:52:58;;;;;;;7.50;3.37;;;14.10;73.10;;;;;;6285887;28;20278;-80
2023/10/12 09:56:11;;;;;;;7.40;3.97;;;14.20;72.90;;;;;;6284552;28;20228;-83
2023/10/12 09:59:19;;;;;;;7.90;3.70;;;14.30;72.70;;;;;;6289023;28;20371;-80
2023/10/12 10:02:29;;;;;;;7.23;3.10;;;14.30;71.70;;;;;;6283247;28;20237;-79
2023/10/12 10:05:52;;;;;;;9.33;3.73;;;14.40;72.10;;;;;;6282476;28;20294;-80
2023/10/12 10:09:19;;;;;;;7.73;3.60;;;14.40;71.80;;;;;;6285400;28;20807;-81
2023/10/12 10:12:24;;;;;;;6.87;3.37;;;14.60;72.10;;;;;;6282500;28;20280;-79
2023/10/12 10:15:36;;;;;;;6.63;3.50;;;14.70;71.50;;;;;;6286618;28;20652;-78
2023/10/12 10:18:47;;;;;;;6.07;3.63;;;14.90;72.00;;;;;;6288413;28;20249;-79
2023/10/12 10:22:03;;;;;;;7.60;3.50;;;15.00;71.50;;;;;;6285905;28;20230;-78
2023/10/12 10:25:14;;;;;;;7.30;3.57;;;14.90;70.30;;;;;;6282466;28;20238;-80
2023/10/12 10:28:23;;;;;;;7.67;3.30;;;14.80;70.70;;;;;;6287630;28;20233;-79
2023/10/12 10:31:28;;;;;;;7.43;3.23;;;14.90;69.30;;;;;;6288268;28;20237;-80
2023/10/12 10:34:34;;;;;;;11.03;3.87;;;15.00;70.40;;;;;;6287363;28;20244;-79
2023/10/12 10:37:57;;;;;;;4.70;2.90;;;15.10;70.70;;;;;;6286131;28;20233;-77
2023/10/12 10:41:07;;;;;;;7.13;3.57;;;15.00;68.70;;;;;;6279929;28;20233;-79
2023/10/12 10:44:15;;;;;;;9.10;3.17;;;15.10;69.50;;;;;;6283563;28;20249;-79
2023/10/12 10:47:21;;;;;;;11.43;3.87;;;15.10;69.90;;;;;;6285681;28;20237;-81
2023/10/12 10:50:25;;;;;;;8.23;3.37;;;15.10;69.60;;;;;;6273309;28;20222;-80
2023/10/12 10:53:36;;;;;;;7.20;3.63;;;15.00;70.40;;;;;;6285554;28;20355;-83
2023/10/12 10:56:47;;;;;;;7.53;3.10;;;15.00;69.80;;;;;;6291945;28;20230;-80
2023/10/12 10:59:51;;;;;;;6.43;3.77;;;14.90;69.50;;;;;;6288402;28;20649;-83
2023/10/12 11:02:56;;;;;;;6.73;3.83;;;14.60;70.50;;;;;;6279489;28;20237;-81
2023/10/12 11:06:00;;;;;;;10.07;3.77;;;14.70;70.70;;;;;;6287699;28;20233;-81
2023/10/12 11:09:06;;;;;;;7.63;3.27;;;14.70;71.00;;;;;;6286624;28;20233;-83
2023/10/12 11:12:10;;;;;;;8.47;3.60;;;14.80;70.30;;;;;;6269318;28;20229;-84
2023/10/12 11:15:19;;;;;;;7.17;3.40;;;14.80;70.70;;;;;;6286702;28;20249;-81
2023/10/12 11:18:25;;;;;;;3.77;3.23;;;14.80;70.80;;;;;;6286046;28;20382;-84
2023/10/12 11:21:28;;;;;;;5.90;3.17;;;15.00;70.90;;;;;;6284875;28;20240;-81
2023/10/12 11:24:44;;;;;;;9.27;3.63;;;15.10;70.00;;;;;;6283486;28;20756;-84
2023/10/12 11:27:51;;;;;;;8.43;3.77;;;15.20;70.00;;;;;;6281631;28;20229;-77
2023/10/12 11:31:01;;;;;;;9.23;3.67;;;15.30;69.20;;;;;;6286184;28;20229;-76
2023/10/12 11:34:11;;;;;;;8.47;3.37;;;15.40;68.90;;;;;;6284030;28;20296;-78
2023/10/12 11:37:17;;;;;;;6.50;3.43;;;15.50;68.20;;;;;;6278406;28;20257;-77
2023/10/12 11:40:30;;;;;;;12.67;4.23;;;15.60;68.00;;;;;;6287668;28;20240;-83
2023/10/12 11:43:49;;;;;;;10.47;4.23;;;15.60;67.50;;;;;;6273618;28;20233;-82
2023/10/12 11:46:58;;;;;;;8.40;3.40;;;15.60;67.00;;;;;;6290366;28;20874;-82
2023/10/12 11:50:01;;;;;;;10.00;3.67;;;15.50;67.00;;;;;;6290206;28;20241;-81
2023/10/12 11:53:05;;;;;;;10.50;3.90;;;15.50;67.40;;;;;;6293409;28;20245;-82
2023/10/12 11:56:13;;;;;;;6.20;3.33;;;15.40;67.90;;;;;;6290855;28;20248;-83
2023/10/12 11:59:25;;;;;;;5.13;3.07;;;15.40;66.70;;;;;;6281958;28;20689;-82
2023/10/12 12:02:29;;;;;;;11.23;3.30;;;15.50;66.80;;;;;;6279277;28;20309;-83
2023/10/12 12:05:33;;;;;;;5.07;3.93;;;15.40;66.50;;;;;;6279440;28;20519;-82
2023/10/12 12:08:36;;;;;;;8.27;3.83;;;15.40;67.20;;;;;;6281396;28;20623;-80
2023/10/12 12:11:51;;;;;;;;;;;;;;;;;;;;;
2023/10/12 12:14:55;;;;;;;12.77;4.60;;;15.60;66.20;;;;;;6281858;28;20236;-82
2023/10/12 12:17:59;;;;;;;12.30;4.13;;;15.60;66.50;;;;;;6284996;28;20335;-82
2023/10/12 12:21:14;;;;;;;4.07;3.10;;;15.60;66.80;;;;;;6284814;28;20394;-82
2023/10/12 12:24:22;;;;;;;5.87;3.70;;;15.70;67.30;;;;;;6283001;28;20320;-82
2023/10/12 12:27:38;;;;;;;9.00;3.30;;;15.80;66.80;;;;;;6288969;28;20233;-80
2023/10/12 12:30:51;;;;;;;8.97;3.93;;;15.80;66.00;;;;;;6279109;28;20755;-84
2023/10/12 12:34:07;;;;;;;9.87;3.50;;;15.80;66.60;;;;;;6285661;28;20288;-81
2023/10/12 12:37:10;;;;;;;13.10;4.30;;;15.40;68.00;;;;;;6285960;28;20295;-80
2023/10/12 12:40:29;;;;;;;6.97;3.87;;;15.20;68.40;;;;;;6286076;28;20249;-81
2023/10/12 12:43:34;;;;;;;11.03;3.73;;;15.20;68.40;;;;;;6291215;28;20319;-80
2023/10/12 12:46:37;;;;;;;7.03;3.77;;;15.40;68.40;;;;;;6293640;28;20709;-81
2023/10/12 12:49:42;;;;;;;7.20;3.20;;;15.60;67.80;;;;;;6289333;28;20320;-83
2023/10/12 12:52:46;;;;;;;7.50;3.63;;;15.90;67.70;;;;;;6292143;28;20770;-82
2023/10/12 12:55:50;;;;;;;10.80;3.70;;;15.90;66.50;;;;;;6292834;28;20233;-81
2023/10/12 12:58:54;;;;;;;5.53;3.63;;;16.00;67.30;;;;;;6290111;28;20229;-81
2023/10/12 13:01:58;;;;;;;11.97;3.53;;;16.20;67.50;;;;;;6291871;28;20236;-85
2023/10/12 13:05:03;;;;;;;4.57;3.20;;;16.40;66.30;;;;;;6290641;28;20237;-83
2023/10/12 13:08:11;;;;;;;10.00;3.40;;;16.60;65.20;;;;;;6294321;28;20285;-85
2023/10/12 13:11:18;;;;;;;9.80;4.60;;;16.60;65.80;;;;;;6289707;28;20256;-83
2023/10/12 13:14:22;;;;;;;5.20;3.47;;;16.60;65.60;;;;;;6293447;28;20237;-84
2023/10/12 13:17:27;;;;;;;7.30;3.70;;;16.60;66.40;;;;;;6296149;28;20244;-82
2023/10/12 13:20:33;;;;;;;11.40;3.60;;;16.70;66.10;;;;;;6296763;28;20249;-84
2023/10/12 13:23:36;;;;;;;5.87;3.50;;;16.70;66.20;;;;;;6300174;28;20248;-84
2023/10/12 13:26:43;;;;;;;9.87;4.03;;;16.60;66.40;;;;;;6293527;28;20316;-83
2023/10/12 13:29:49;;;;;;;8.77;3.97;;;16.60;66.90;;;;;;6285767;28;20222;-78
2023/10/12 13:32:59;;;;;;;5.87;3.03;;;16.50;66.90;;;;;;6282900;28;20245;-79
2023/10/12 13:36:03;;;;;;;6.27;3.60;;;16.50;66.10;;;;;;6281846;28;20225;-80
2023/10/12 13:39:09;;;;;;;5.83;3.10;;;16.60;67.20;;;;;;6290638;28;20312;-80
2023/10/12 13:42:12;;;;;;;12.30;3.40;;;16.70;66.50;;;;;;6279624;28;20341;-81
2023/10/12 13:45:20;;;;;;;10.40;3.17;;;16.80;65.50;;;;;;6287089;28;20249;-77
2023/10/12 13:48:25;;;;;;;9.47;3.83;;;16.70;64.80;;;;;;6288326;28;20237;-78
2023/10/12 13:51:31;;;;;;;6.93;2.97;;;16.60;65.60;;;;;;6282368;28;20244;-78
2023/10/12 13:54:34;;;;;;;9.20;3.20;;;16.50;64.50;;;;;;6282578;28;20240;-78
2023/10/12 13:57:39;;;;;;;6.00;3.60;;;16.10;65.10;;;;;;6288669;28;20243;-77
2023/10/12 14:00:43;;;;;;;6.27;3.50;;;15.80;66.00;;;;;;6282047;28;20242;-77
2023/10/12 14:03:53;;;;;;;6.47;3.67;;;15.80;66.30;;;;;;6282435;28;20308;-82
2023/10/12 14:07:01;;;;;;;8.07;3.30;;;15.70;66.40;;;;;;6301942;28;20273;-83
2023/10/12 14:10:06;;;;;;;8.67;3.27;;;15.80;66.60;;;;;;6295671;28;20263;-82
2023/10/12 14:13:16;;;;;;;5.13;3.37;;;15.80;66.10;;;;;;6291964;28;20245;-82
2023/10/12 14:16:23;;;;;;;9.37;3.30;;;16.00;66.60;;;;;;6288709;28;20248;-81
2023/10/12 14:19:40;;;;;;;7.67;3.30;;;16.00;66.20;;;;;;6284791;28;20234;-83
2023/10/12 14:22:44;;;;;;;10.93;3.17;;;16.00;66.20;;;;;;6267018;28;20396;-81
2023/10/12 14:25:51;;;;;;;5.63;3.20;;;16.00;66.40;;;;;;6291194;28;20240;-82
2023/10/12 14:28:55;;;;;;;8.67;3.83;;;15.80;66.20;;;;;;6295345;28;20637;-83
2023/10/12 14:32:02;;;;;;;6.40;3.40;;;15.90;65.80;;;;;;6273866;28;20228;-82
2023/10/12 14:35:07;;;;;;;6.40;3.30;;;15.80;66.00;;;;;;6273117;28;20241;-81
2023/10/12 14:38:14;;;;;;;6.77;3.60;;;15.80;66.40;;;;;;6287458;28;20616;-82
2023/10/12 14:41:24;;;;;;;12.60;3.87;;;15.80;66.00;;;;;;6279387;28;20263;-82
2023/10/12 14:44:27;;;;;;;9.77;3.67;;;15.80;66.00;;;;;;6283321;28;20241;-83
2023/10/12 14:47:35;;;;;;;14.17;3.97;;;15.70;65.50;;;;;;6298400;28;20241;-83
2023/10/12 14:50:43;;;;;;;8.63;3.20;;;15.70;65.60;;;;;;6290611;28;20243;-82
2023/10/12 14:53:46;;;;;;;7.80;3.50;;;15.70;65.80;;;;;;6300379;28;20355;-83
2023/10/12 14:56:49;;;;;;;5.53;3.80;;;15.60;65.80;;;;;;6300149;28;20257;-84
2023/10/12 14:59:53;;;;;;;5.23;3.23;;;15.60;66.30;;;;;;6300869;28;20339;-80
2023/10/12 15:02:58;;;;;;;9.17;3.37;;;15.50;66.90;;;;;;6297571;28;20236;-85
2023/10/12 15:06:04;;;;;;;8.47;4.33;;;15.40;67.60;;;;;;6296197;28;20267;-82
2023/10/12 15:09:11;;;;;;;9.03;3.63;;;15.20;68.20;;;;;;6293593;28;20233;-77
2023/10/12 15:12:14;;;;;;;9.87;3.63;;;15.20;68.60;;;;;;6299453;28;20316;-81
2023/10/12 15:15:18;;;;;;;7.77;3.87;;;15.00;68.80;;;;;;6303704;28;20236;-81
2023/10/12 15:18:23;;;;;;;7.83;3.70;;;15.00;69.20;;;;;;6291409;28;20229;-82
2023/10/12 15:21:26;;;;;;;6.90;3.27;;;14.90;69.40;;;;;;6291171;28;20244;-81
2023/10/12 15:24:40;;;;;;;9.60;3.97;;;14.90;69.40;;;;;;6290834;28;20248;-83
2023/10/12 15:27:44;;;;;;;9.20;3.77;;;14.80;70.70;;;;;;6283923;28;20241;-85
2023/10/12 15:30:47;;;;;;;13.27;3.93;;;14.80;70.90;;;;;;6295031;28;20242;-85
2023/10/12 15:33:54;;;;;;;6.90;3.47;;;14.80;71.60;;;;;;6294028;28;20661;-84
2023/10/12 15:36:58;;;;;;;7.10;4.03;;;14.70;72.10;;;;;;6288054;28;20233;-82
2023/10/12 15:40:08;;;;;;;6.60;3.60;;;14.60;72.50;;;;;;6297026;28;20237;-84
2023/10/12 15:43:16;;;;;;;10.27;4.10;;;14.70;72.60;;;;;;6290496;28;20238;-82
2023/10/12 15:46:20;;;;;;;8.83;3.70;;;14.70;73.10;;;;;;6297554;28;20325;-83
2023/10/12 15:49:24;;;;;;;6.90;3.60;;;14.60;73.00;;;;;;6310735;28;20240;-80
2023/10/12 15:52:28;;;;;;;8.50;3.60;;;14.50;73.40;;;;;;6305619;28;20239;-82
2023/10/12 15:55:39;;;;;;;11.97;4.00;;;14.50;73.60;;;;;;6299286;28;20236;-85
2023/10/12 15:58:43;;;;;;;10.83;4.20;;;14.50;73.40;;;;;;6281031;28;20368;-84
2023/10/12 16:01:49;;;;;;;5.43;4.00;;;14.50;73.30;;;;;;6273463;28;20324;-84
2023/10/12 16:04:54;;;;;;;10.67;4.00;;;14.50;73.20;;;;;;6280126;28;20230;-82
2023/10/12 16:07:58;;;;;;;8.30;3.47;;;14.50;72.90;;;;;;6290272;28;20248;-80
2023/10/12 16:11:02;;;;;;;10.00;4.23;;;14.40;73.00;;;;;;6296596;28;20232;-82
2023/10/12 16:14:06;;;;;;;15.37;4.27;;;14.40;73.20;;;;;;6287438;28;20237;-82
2023/10/12 16:17:09;;;;;;;9.70;3.70;;;14.30;73.60;;;;;;6279620;28;20755;-83
2023/10/12 16:20:14;;;;;;;7.27;3.30;;;14.30;74.00;;;;;;6281891;28;20911;-81
2023/10/12 16:23:19;;;;;;;14.07;4.50;;;14.30;74.10;;;;;;6282241;28;20644;-84
2023/10/12 16:26:23;;;;;;;8.23;3.50;;;14.20;74.30;;;;;;6281800;28;20846;-81
2023/10/12 16:29:27;;;;;;;8.43;3.67;;;14.20;74.20;;;;;;6280358;28;20240;-84
2023/10/12 16:32:30;;;;;;;7.97;4.20;;;14.30;74.50;;;;;;6276220;28;20376;-83
2023/10/12 16:35:36;;;;;;;6.93;3.80;;;14.30;74.70;;;;;;6271168;28;20312;-83
2023/10/12 16:38:39;;;;;;;11.03;4.03;;;14.20;74.60;;;;;;6274511;28;20371;-84
2023/10/12 16:41:42;;;;;;;7.47;3.70;;;14.20;74.70;;;;;;6280809;28;20241;-81